sensor_id;sensor_type;location;lat;lon;timestamp;temperature;humidity
2435;DHT22;1228;51.022;6.764;2023-03-16T00:00:25;2.40;99.90
2435;DHT22;1228;51.022;6.764;2023-03-16T00:02:52;2.40;99.90
2435;DHT22;1228;51.022;6.764;2023-03-16T00:05:17;2.40;99.90
2435;DHT22;1228;51.022;6.764;2023-03-16T00:07:43;2.40;99.90
2435;DHT22;1228;51.022;6.764;2023-03-16T00:10:11;2.30;99.90
2435;DHT22;1228;51.022;6.764;2023-03-16T00:12:37;2.30;99.90
2435;DHT22;1228;51.022;6.764;2023-03-16T00:15:03;2.30;99.90
2435;DHT22;1228;51.022;6.764;2023-03-16T00:17:29;2.30;99.90
2435;DHT22;1228;51.022;6.764;2023-03-16T00:19:56;2.30;99.90
2435;DHT22;1228;51.022;6.764;2023-03-16T00:22:23;2.30;99.90
2435;DHT22;1228;51.022;6.764;2023-03-16T00:24:49;2.20;99.90
2435;DHT22;1228;51.022;6.764;2023-03-16T00:27:15;2.20;99.90
2435;DHT22;1228;51.022;6.764;2023-03-16T00:29:42;2.30;99.90
2435;DHT22;1228;51.022;6.764;2023-03-16T00:32:13;2.30;99.90
2435;DHT22;1228;51.022;6.764;2023-03-16T00:34:39;2.30;99.90
2435;DHT22;1228;51.022;6.764;2023-03-16T00:37:04;2.30;99.90
2435;DHT22;1228;51.022;6.764;2023-03-16T00:39:30;2.40;99.90
2435;DHT22;1228;51.022;6.764;2023-03-16T00:42:02;2.40;99.90
2435;DHT22;1228;51.022;6.764;2023-03-16T00:44:28;2.50;99.90
2435;DHT22;1228;51.022;6.764;2023-03-16T00:46:54;2.50;99.90
2435;DHT22;1228;51.022;6.764;2023-03-16T00:49:20;2.50;99.90
2435;DHT22;1228;51.022;6.764;2023-03-16T00:51:46;2.60;99.90
2435;DHT22;1228;51.022;6.764;2023-03-16T00:54:12;2.60;99.90
2435;DHT22;1228;51.022;6.764;2023-03-16T00:56:38;2.60;99.90
2435;DHT22;1228;51.022;6.764;2023-03-16T00:59:04;2.60;99.90
2435;DHT22;1228;51.022;6.764;2023-03-16T01:01:30;2.60;99.90
2435;DHT22;1228;51.022;6.764;2023-03-16T01:03:57;2.70;99.90
2435;DHT22;1228;51.022;6.764;2023-03-16T01:06:24;2.70;99.90
2435;DHT22;1228;51.022;6.764;2023-03-16T01:08:51;2.70;99.90
2435;DHT22;1228;51.022;6.764;2023-03-16T01:11:19;2.70;99.90
2435;DHT22;1228;51.022;6.764;2023-03-16T01:13:47;2.70;99.90
2435;DHT22;1228;51.022;6.764;2023-03-16T01:16:13;2.70;99.90
2435;DHT22;1228;51.022;6.764;2023-03-16T01:18:39;2.70;99.90
2435;DHT22;1228;51.022;6.764;2023-03-16T01:21:07;2.70;99.90
2435;DHT22;1228;51.022;6.764;2023-03-16T01:23:34;2.70;99.90
2435;DHT22;1228;51.022;6.764;2023-03-16T01:26:00;2.70;99.90
2435;DHT22;1228;51.022;6.764;2023-03-16T01:28:28;2.70;99.90
2435;DHT22;1228;51.022;6.764;2023-03-16T01:31:00;2.70;99.90
2435;DHT22;1228;51.022;6.764;2023-03-16T01:33:27;2.70;99.90
2435;DHT22;1228;51.022;6.764;2023-03-16T01:35:54;2.70;99.90
2435;DHT22;1228;51.022;6.764;2023-03-16T01:38:20;2.70;99.90
2435;DHT22;1228;51.022;6.764;2023-03-16T01:40:47;2.70;99.90
2435;DHT22;1228;51.022;6.764;2023-03-16T01:43:18;2.70;99.90
2435;DHT22;1228;51.022;6.764;2023-03-16T01:48:32;2.70;99.90
2435;DHT22;1228;51.022;6.764;2023-03-16T01:51:09;2.70;99.90
2435;DHT22;1228;51.022;6.764;2023-03-16T01:53:37;2.70;99.90
2435;DHT22;1228;51.022;6.764;2023-03-16T01:56:06;2.70;99.90
2435;DHT22;1228;51.022;6.764;2023-03-16T01:58:34;2.70;99.90
2435;DHT22;1228;51.022;6.764;2023-03-16T02:01:02;2.70;99.90
2435;DHT22;1228;51.022;6.764;2023-03-16T02:03:28;2.70;99.90
2435;DHT22;1228;51.022;6.764;2023-03-16T02:08:36;2.70;99.90
2435;DHT22;1228;51.022;6.764;2023-03-16T02:11:05;2.70;99.90
2435;DHT22;1228;51.022;6.764;2023-03-16T02:13:31;2.70;99.90
2435;DHT22;1228;51.022;6.764;2023-03-16T02:16:02;2.70;99.90
2435;DHT22;1228;51.022;6.764;2023-03-16T02:18:29;2.70;99.90
2435;DHT22;1228;51.022;6.764;2023-03-16T02:23:58;2.80;99.90
2435;DHT22;1228;51.022;6.764;2023-03-16T02:27:29;2.70;99.90
2435;DHT22;1228;51.022;6.764;2023-03-16T02:29:55;2.70;99.90
2435;DHT22;1228;51.022;6.764;2023-03-16T02:32:23;2.70;99.90
2435;DHT22;1228;51.022;6.764;2023-03-16T02:34:50;2.70;99.90
2435;DHT22;1228;51.022;6.764;2023-03-16T02:37:16;2.60;99.90
2435;DHT22;1228;51.022;6.764;2023-03-16T02:39:42;2.60;99.90
2435;DHT22;1228;51.022;6.764;2023-03-16T02:42:13;2.60;99.90
2435;DHT22;1228;51.022;6.764;2023-03-16T02:44:41;2.60;99.90
2435;DHT22;1228;51.022;6.764;2023-03-16T02:47:14;2.60;99.90
2435;DHT22;1228;51.022;6.764;2023-03-16T02:49:43;2.60;99.90
2435;DHT22;1228;51.022;6.764;2023-03-16T02:52:10;2.60;99.90
2435;DHT22;1228;51.022;6.764;2023-03-16T02:54:36;2.60;99.90
2435;DHT22;1228;51.022;6.764;2023-03-16T02:57:02;2.60;99.90
2435;DHT22;1228;51.022;6.764;2023-03-16T02:59:29;2.70;99.90
2435;DHT22;1228;51.022;6.764;2023-03-16T03:01:55;2.70;99.90
2435;DHT22;1228;51.022;6.764;2023-03-16T03:04:21;2.70;99.90
2435;DHT22;1228;51.022;6.764;2023-03-16T03:06:48;2.70;99.90
2435;DHT22;1228;51.022;6.764;2023-03-16T03:09:13;2.70;99.90
2435;DHT22;1228;51.022;6.764;2023-03-16T03:11:39;2.70;99.90
2435;DHT22;1228;51.022;6.764;2023-03-16T03:14:05;2.70;99.90
2435;DHT22;1228;51.022;6.764;2023-03-16T03:16:31;2.70;99.90
2435;DHT22;1228;51.022;6.764;2023-03-16T03:18:57;2.70;99.90
2435;DHT22;1228;51.022;6.764;2023-03-16T03:21:23;2.70;99.90
2435;DHT22;1228;51.022;6.764;2023-03-16T03:23:48;2.80;99.90
2435;DHT22;1228;51.022;6.764;2023-03-16T03:26:14;2.80;99.90
2435;DHT22;1228;51.022;6.764;2023-03-16T03:28:41;2.70;99.90
2435;DHT22;1228;51.022;6.764;2023-03-16T03:31:17;2.70;99.90
2435;DHT22;1228;51.022;6.764;2023-03-16T03:33:43;2.80;99.90
2435;DHT22;1228;51.022;6.764;2023-03-16T03:36:09;2.70;99.90
2435;DHT22;1228;51.022;6.764;2023-03-16T03:38:35;2.70;99.90
2435;DHT22;1228;51.022;6.764;2023-03-16T03:41:01;2.70;99.90
2435;DHT22;1228;51.022;6.764;2023-03-16T03:43:27;2.70;99.90
2435;DHT22;1228;51.022;6.764;2023-03-16T03:45:56;2.70;99.90
2435;DHT22;1228;51.022;6.764;2023-03-16T03:48:23;2.70;99.90
2435;DHT22;1228;51.022;6.764;2023-03-16T03:50:49;2.70;99.90
2435;DHT22;1228;51.022;6.764;2023-03-16T03:53:15;2.70;99.90
2435;DHT22;1228;51.022;6.764;2023-03-16T03:55:41;2.70;99.90
2435;DHT22;1228;51.022;6.764;2023-03-16T03:58:06;2.70;99.90
2435;DHT22;1228;51.022;6.764;2023-03-16T04:00:32;2.70;99.90
2435;DHT22;1228;51.022;6.764;2023-03-16T04:02:57;2.70;99.90
2435;DHT22;1228;51.022;6.764;2023-03-16T04:05:24;2.70;99.90
2435;DHT22;1228;51.022;6.764;2023-03-16T04:07:54;2.70;99.90
2435;DHT22;1228;51.022;6.764;2023-03-16T04:10:26;2.80;99.90
2435;DHT22;1228;51.022;6.764;2023-03-16T04:12:52;2.80;99.90
2435;DHT22;1228;51.022;6.764;2023-03-16T04:15:18;2.80;99.90
2435;DHT22;1228;51.022;6.764;2023-03-16T04:17:44;2.80;99.90
2435;DHT22;1228;51.022;6.764;2023-03-16T04:20:10;2.80;99.90
2435;DHT22;1228;51.022;6.764;2023-03-16T04:22:41;2.80;99.90
2435;DHT22;1228;51.022;6.764;2023-03-16T04:25:11;2.80;99.90
2435;DHT22;1228;51.022;6.764;2023-03-16T04:27:37;2.80;99.90
2435;DHT22;1228;51.022;6.764;2023-03-16T04:30:04;2.90;99.90
2435;DHT22;1228;51.022;6.764;2023-03-16T04:32:34;2.90;99.90
2435;DHT22;1228;51.022;6.764;2023-03-16T04:34:59;2.90;99.90
2435;DHT22;1228;51.022;6.764;2023-03-16T04:37:26;3.00;99.90
2435;DHT22;1228;51.022;6.764;2023-03-16T04:39:51;3.00;99.90
2435;DHT22;1228;51.022;6.764;2023-03-16T04:42:17;3.00;99.90
2435;DHT22;1228;51.022;6.764;2023-03-16T04:44:42;3.00;99.90
2435;DHT22;1228;51.022;6.764;2023-03-16T04:47:11;3.00;99.90
2435;DHT22;1228;51.022;6.764;2023-03-16T04:49:37;3.00;99.90
2435;DHT22;1228;51.022;6.764;2023-03-16T04:52:03;3.00;99.90
2435;DHT22;1228;51.022;6.764;2023-03-16T04:54:29;3.00;99.90
2435;DHT22;1228;51.022;6.764;2023-03-16T04:56:55;3.00;99.90
2435;DHT22;1228;51.022;6.764;2023-03-16T04:59:21;3.00;99.90
2435;DHT22;1228;51.022;6.764;2023-03-16T05:01:47;3.00;99.90
2435;DHT22;1228;51.022;6.764;2023-03-16T05:04:13;3.00;99.90
2435;DHT22;1228;51.022;6.764;2023-03-16T05:06:39;3.10;99.90
2435;DHT22;1228;51.022;6.764;2023-03-16T05:09:06;3.10;99.90
2435;DHT22;1228;51.022;6.764;2023-03-16T05:11:33;3.10;99.90
2435;DHT22;1228;51.022;6.764;2023-03-16T05:13:59;3.10;99.90
2435;DHT22;1228;51.022;6.764;2023-03-16T05:16:26;3.10;99.90
2435;DHT22;1228;51.022;6.764;2023-03-16T05:18:52;3.10;99.90
2435;DHT22;1228;51.022;6.764;2023-03-16T05:21:17;3.10;99.90
2435;DHT22;1228;51.022;6.764;2023-03-16T05:23:43;3.10;99.90
2435;DHT22;1228;51.022;6.764;2023-03-16T05:26:08;3.10;99.90
2435;DHT22;1228;51.022;6.764;2023-03-16T05:28:34;3.10;99.90
2435;DHT22;1228;51.022;6.764;2023-03-16T05:31:00;3.10;99.90
2435;DHT22;1228;51.022;6.764;2023-03-16T05:33:28;3.10;99.90
2435;DHT22;1228;51.022;6.764;2023-03-16T05:35:53;3.10;99.90
2435;DHT22;1228;51.022;6.764;2023-03-16T05:38:19;3.10;99.90
2435;DHT22;1228;51.022;6.764;2023-03-16T05:40:44;3.10;99.90
2435;DHT22;1228;51.022;6.764;2023-03-16T05:43:10;3.10;99.90
2435;DHT22;1228;51.022;6.764;2023-03-16T05:45:36;3.10;99.90
2435;DHT22;1228;51.022;6.764;2023-03-16T05:48:02;3.10;99.90
2435;DHT22;1228;51.022;6.764;2023-03-16T05:50:30;3.10;99.90
2435;DHT22;1228;51.022;6.764;2023-03-16T05:52:55;3.10;99.90
2435;DHT22;1228;51.022;6.764;2023-03-16T05:55:21;3.10;99.90
2435;DHT22;1228;51.022;6.764;2023-03-16T05:57:47;3.20;99.90
2435;DHT22;1228;51.022;6.764;2023-03-16T06:00:14;3.10;99.90
2435;DHT22;1228;51.022;6.764;2023-03-16T06:02:50;3.20;99.90
2435;DHT22;1228;51.022;6.764;2023-03-16T06:05:17;3.20;99.90
2435;DHT22;1228;51.022;6.764;2023-03-16T06:07:44;3.30;99.90
2435;DHT22;1228;51.022;6.764;2023-03-16T06:10:10;3.40;99.90
2435;DHT22;1228;51.022;6.764;2023-03-16T06:12:36;3.40;99.90
2435;DHT22;1228;51.022;6.764;2023-03-16T06:15:03;3.40;99.90
2435;DHT22;1228;51.022;6.764;2023-03-16T06:17:32;3.50;99.90
2435;DHT22;1228;51.022;6.764;2023-03-16T06:19:58;3.50;99.90
2435;DHT22;1228;51.022;6.764;2023-03-16T06:22:23;3.60;99.90
2435;DHT22;1228;51.022;6.764;2023-03-16T06:24:50;3.70;99.90
2435;DHT22;1228;51.022;6.764;2023-03-16T06:27:16;3.80;99.90
2435;DHT22;1228;51.022;6.764;2023-03-16T06:29:42;3.90;99.90
2435;DHT22;1228;51.022;6.764;2023-03-16T06:32:08;3.90;99.90
2435;DHT22;1228;51.022;6.764;2023-03-16T06:34:34;4.00;99.90
2435;DHT22;1228;51.022;6.764;2023-03-16T06:37:01;4.10;99.90
2435;DHT22;1228;51.022;6.764;2023-03-16T06:39:26;4.10;99.90
2435;DHT22;1228;51.022;6.764;2023-03-16T06:41:52;4.20;99.90
2435;DHT22;1228;51.022;6.764;2023-03-16T06:44:18;4.20;99.90
2435;DHT22;1228;51.022;6.764;2023-03-16T06:46:43;4.30;99.90
2435;DHT22;1228;51.022;6.764;2023-03-16T06:49:09;4.30;99.90
2435;DHT22;1228;51.022;6.764;2023-03-16T06:51:35;4.40;99.90
2435;DHT22;1228;51.022;6.764;2023-03-16T06:54:00;4.50;99.90
2435;DHT22;1228;51.022;6.764;2023-03-16T06:56:26;4.50;99.90
2435;DHT22;1228;51.022;6.764;2023-03-16T06:58:52;4.60;99.90
2435;DHT22;1228;51.022;6.764;2023-03-16T07:01:18;4.60;99.90
2435;DHT22;1228;51.022;6.764;2023-03-16T07:03:44;4.60;99.90
2435;DHT22;1228;51.022;6.764;2023-03-16T07:06:09;4.70;99.90
2435;DHT22;1228;51.022;6.764;2023-03-16T07:08:35;4.80;99.90
2435;DHT22;1228;51.022;6.764;2023-03-16T07:11:00;4.80;99.90
2435;DHT22;1228;51.022;6.764;2023-03-16T07:13:26;4.90;99.90
2435;DHT22;1228;51.022;6.764;2023-03-16T07:15:52;5.00;99.90
2435;DHT22;1228;51.022;6.764;2023-03-16T07:18:18;5.00;99.90
2435;DHT22;1228;51.022;6.764;2023-03-16T07:20:44;5.10;99.90
2435;DHT22;1228;51.022;6.764;2023-03-16T07:23:09;5.20;99.90
2435;DHT22;1228;51.022;6.764;2023-03-16T07:25:35;5.10;99.90
2435;DHT22;1228;51.022;6.764;2023-03-16T07:28:01;5.20;99.90
2435;DHT22;1228;51.022;6.764;2023-03-16T07:30:28;5.30;99.90
2435;DHT22;1228;51.022;6.764;2023-03-16T07:32:53;5.40;99.90
2435;DHT22;1228;51.022;6.764;2023-03-16T07:35:19;5.50;99.90
2435;DHT22;1228;51.022;6.764;2023-03-16T07:37:46;5.60;99.90
2435;DHT22;1228;51.022;6.764;2023-03-16T07:40:12;5.70;99.90
2435;DHT22;1228;51.022;6.764;2023-03-16T07:42:38;5.80;99.90
2435;DHT22;1228;51.022;6.764;2023-03-16T07:45:04;5.90;99.90
2435;DHT22;1228;51.022;6.764;2023-03-16T07:47:30;6.00;99.90
2435;DHT22;1228;51.022;6.764;2023-03-16T07:49:57;6.30;99.90
2435;DHT22;1228;51.022;6.764;2023-03-16T07:52:23;6.40;99.90
2435;DHT22;1228;51.022;6.764;2023-03-16T07:54:49;6.50;99.90
2435;DHT22;1228;51.022;6.764;2023-03-16T07:57:15;6.60;99.90
2435;DHT22;1228;51.022;6.764;2023-03-16T07:59:41;6.60;99.90
2435;DHT22;1228;51.022;6.764;2023-03-16T08:02:15;6.70;99.90
2435;DHT22;1228;51.022;6.764;2023-03-16T08:04:41;6.80;99.90
2435;DHT22;1228;51.022;6.764;2023-03-16T08:07:08;6.80;99.90
2435;DHT22;1228;51.022;6.764;2023-03-16T08:09:33;6.80;99.90
2435;DHT22;1228;51.022;6.764;2023-03-16T08:12:01;6.90;99.90
2435;DHT22;1228;51.022;6.764;2023-03-16T08:14:28;7.00;99.90
2435;DHT22;1228;51.022;6.764;2023-03-16T08:16:53;7.10;99.90
2435;DHT22;1228;51.022;6.764;2023-03-16T08:19:19;7.00;99.90
2435;DHT22;1228;51.022;6.764;2023-03-16T08:21:45;6.90;99.90
2435;DHT22;1228;51.022;6.764;2023-03-16T08:24:11;6.90;99.90
2435;DHT22;1228;51.022;6.764;2023-03-16T08:26:37;6.90;99.90
2435;DHT22;1228;51.022;6.764;2023-03-16T08:29:02;6.90;99.90
2435;DHT22;1228;51.022;6.764;2023-03-16T08:31:28;6.80;99.90
2435;DHT22;1228;51.022;6.764;2023-03-16T08:33:55;7.00;99.90
2435;DHT22;1228;51.022;6.764;2023-03-16T08:36:21;7.00;99.90
2435;DHT22;1228;51.022;6.764;2023-03-16T08:38:48;7.10;99.90
2435;DHT22;1228;51.022;6.764;2023-03-16T08:41:13;7.10;99.90
2435;DHT22;1228;51.022;6.764;2023-03-16T08:43:41;7.10;99.90
2435;DHT22;1228;51.022;6.764;2023-03-16T08:46:07;7.10;99.90
2435;DHT22;1228;51.022;6.764;2023-03-16T08:48:33;7.10;99.90
2435;DHT22;1228;51.022;6.764;2023-03-16T08:51:02;7.10;99.90
2435;DHT22;1228;51.022;6.764;2023-03-16T08:53:28;7.20;99.90
2435;DHT22;1228;51.022;6.764;2023-03-16T08:56:09;7.30;99.90
2435;DHT22;1228;51.022;6.764;2023-03-16T08:58:36;7.40;99.90
2435;DHT22;1228;51.022;6.764;2023-03-16T09:01:02;7.50;99.90
2435;DHT22;1228;51.022;6.764;2023-03-16T09:03:30;7.60;99.90
2435;DHT22;1228;51.022;6.764;2023-03-16T09:06:01;7.70;99.90
2435;DHT22;1228;51.022;6.764;2023-03-16T09:08:27;7.80;99.90
2435;DHT22;1228;51.022;6.764;2023-03-16T09:11:08;7.80;99.90
2435;DHT22;1228;51.022;6.764;2023-03-16T09:13:35;8.00;99.90
2435;DHT22;1228;51.022;6.764;2023-03-16T09:16:01;8.10;99.90
2435;DHT22;1228;51.022;6.764;2023-03-16T09:18:27;8.20;99.90
2435;DHT22;1228;51.022;6.764;2023-03-16T09:20:57;8.40;99.90
2435;DHT22;1228;51.022;6.764;2023-03-16T09:23:23;8.60;99.90
2435;DHT22;1228;51.022;6.764;2023-03-16T09:25:50;8.80;99.90
2435;DHT22;1228;51.022;6.764;2023-03-16T09:28:16;9.00;99.90
2435;DHT22;1228;51.022;6.764;2023-03-16T09:30:42;9.30;99.90
2435;DHT22;1228;51.022;6.764;2023-03-16T09:33:07;9.50;99.90
2435;DHT22;1228;51.022;6.764;2023-03-16T09:35:33;9.80;99.90
2435;DHT22;1228;51.022;6.764;2023-03-16T09:37:59;10.10;99.90
2435;DHT22;1228;51.022;6.764;2023-03-16T09:40:27;10.20;99.90
2435;DHT22;1228;51.022;6.764;2023-03-16T09:48:00;10.00;99.90
2435;DHT22;1228;51.022;6.764;2023-03-16T09:50:32;9.90;99.90
2435;DHT22;1228;51.022;6.764;2023-03-16T09:53:20;9.70;99.90
2435;DHT22;1228;51.022;6.764;2023-03-16T09:55:52;9.50;99.90
2435;DHT22;1228;51.022;6.764;2023-03-16T09:58:21;9.50;99.90
2435;DHT22;1228;51.022;6.764;2023-03-16T10:03:47;9.50;99.90
2435;DHT22;1228;51.022;6.764;2023-03-16T10:06:15;9.60;99.90
2435;DHT22;1228;51.022;6.764;2023-03-16T10:08:55;9.60;99.90
2435;DHT22;1228;51.022;6.764;2023-03-16T10:11:45;9.60;99.90
2435;DHT22;1228;51.022;6.764;2023-03-16T10:14:15;9.60;99.90
2435;DHT22;1228;51.022;6.764;2023-03-16T10:16:49;9.60;99.90
2435;DHT22;1228;51.022;6.764;2023-03-16T10:19:35;9.60;99.90
2435;DHT22;1228;51.022;6.764;2023-03-16T10:22:23;9.70;99.90
2435;DHT22;1228;51.022;6.764;2023-03-16T10:25:08;9.90;99.90
2435;DHT22;1228;51.022;6.764;2023-03-16T10:27:38;10.10;99.90
2435;DHT22;1228;51.022;6.764;2023-03-16T10:30:24;10.30;99.90
2435;DHT22;1228;51.022;6.764;2023-03-16T10:32:52;10.40;99.90
2435;DHT22;1228;51.022;6.764;2023-03-16T10:38:39;10.60;99.90
2435;DHT22;1228;51.022;6.764;2023-03-16T10:43:48;10.70;99.90
2435;DHT22;1228;51.022;6.764;2023-03-16T10:46:14;10.80;99.90
2435;DHT22;1228;51.022;6.764;2023-03-16T10:48:41;10.70;99.90
2435;DHT22;1228;51.022;6.764;2023-03-16T10:51:11;10.60;99.90
2435;DHT22;1228;51.022;6.764;2023-03-16T10:53:41;10.70;99.90
2435;DHT22;1228;51.022;6.764;2023-03-16T10:56:10;10.90;99.90
2435;DHT22;1228;51.022;6.764;2023-03-16T10:58:40;11.10;99.90
2435;DHT22;1228;51.022;6.764;2023-03-16T11:01:26;11.30;99.90
2435;DHT22;1228;51.022;6.764;2023-03-16T11:03:54;11.60;99.90
2435;DHT22;1228;51.022;6.764;2023-03-16T11:08:50;12.20;99.90
2435;DHT22;1228;51.022;6.764;2023-03-16T11:11:23;12.40;99.90
2435;DHT22;1228;51.022;6.764;2023-03-16T11:13:56;12.90;99.90
2435;DHT22;1228;51.022;6.764;2023-03-16T11:19:32;12.80;99.90
2435;DHT22;1228;51.022;6.764;2023-03-16T11:22:21;12.90;99.90
2435;DHT22;1228;51.022;6.764;2023-03-16T11:24:52;13.30;99.90
2435;DHT22;1228;51.022;6.764;2023-03-16T11:27:24;13.50;99.90
2435;DHT22;1228;51.022;6.764;2023-03-16T11:30:13;13.40;99.90
2435;DHT22;1228;51.022;6.764;2023-03-16T11:32:46;13.20;99.90
2435;DHT22;1228;51.022;6.764;2023-03-16T11:35:16;13.00;99.90
2435;DHT22;1228;51.022;6.764;2023-03-16T11:56:53;13.70;99.90
2435;DHT22;1228;51.022;6.764;2023-03-16T11:59:40;13.60;99.90
2435;DHT22;1228;51.022;6.764;2023-03-16T12:04:43;13.30;99.90
2435;DHT22;1228;51.022;6.764;2023-03-16T12:08:08;13.40;99.90
2435;DHT22;1228;51.022;6.764;2023-03-16T12:13:04;14.10;99.90
2435;DHT22;1228;51.022;6.764;2023-03-16T12:15:40;14.50;99.90
2435;DHT22;1228;51.022;6.764;2023-03-16T12:18:37;14.60;99.70
2435;DHT22;1228;51.022;6.764;2023-03-16T12:21:09;14.30;99.80
2435;DHT22;1228;51.022;6.764;2023-03-16T12:23:41;14.00;99.90
2435;DHT22;1228;51.022;6.764;2023-03-16T12:26:08;13.70;99.90
2435;DHT22;1228;51.022;6.764;2023-03-16T12:28:34;13.60;99.90
2435;DHT22;1228;51.022;6.764;2023-03-16T12:31:06;13.60;99.90
2435;DHT22;1228;51.022;6.764;2023-03-16T12:39:35;13.70;99.90
2435;DHT22;1228;51.022;6.764;2023-03-16T12:44:54;13.60;99.90
2435;DHT22;1228;51.022;6.764;2023-03-16T12:49:50;13.60;99.90
2435;DHT22;1228;51.022;6.764;2023-03-16T12:52:19;13.70;99.90
2435;DHT22;1228;51.022;6.764;2023-03-16T12:54:52;13.90;99.90
2435;DHT22;1228;51.022;6.764;2023-03-16T12:57:23;14.10;99.90
2435;DHT22;1228;51.022;6.764;2023-03-16T12:59:54;14.20;99.90
2435;DHT22;1228;51.022;6.764;2023-03-16T13:02:30;14.10;99.80
2435;DHT22;1228;51.022;6.764;2023-03-16T13:05:00;14.00;99.90
2435;DHT22;1228;51.022;6.764;2023-03-16T13:07:28;13.90;99.90
2435;DHT22;1228;51.022;6.764;2023-03-16T13:09:59;13.90;99.90
2435;DHT22;1228;51.022;6.764;2023-03-16T13:12:30;14.00;99.90
2435;DHT22;1228;51.022;6.764;2023-03-16T13:14:57;14.00;99.90
2435;DHT22;1228;51.022;6.764;2023-03-16T13:17:26;13.90;99.90
2435;DHT22;1228;51.022;6.764;2023-03-16T13:20:02;13.80;99.90
2435;DHT22;1228;51.022;6.764;2023-03-16T13:22:30;13.70;99.90
2435;DHT22;1228;51.022;6.764;2023-03-16T13:25:13;13.60;99.90
2435;DHT22;1228;51.022;6.764;2023-03-16T13:27:43;13.70;99.90
2435;DHT22;1228;51.022;6.764;2023-03-16T13:30:28;14.00;99.90
2435;DHT22;1228;51.022;6.764;2023-03-16T13:32:59;14.40;99.90
2435;DHT22;1228;51.022;6.764;2023-03-16T13:35:27;14.60;99.90
2435;DHT22;1228;51.022;6.764;2023-03-16T13:38:01;14.70;99.90
2435;DHT22;1228;51.022;6.764;2023-03-16T13:40:27;14.90;99.90
2435;DHT22;1228;51.022;6.764;2023-03-16T13:42:53;14.90;98.70
2435;DHT22;1228;51.022;6.764;2023-03-16T13:45:23;15.00;99.30
2435;DHT22;1228;51.022;6.764;2023-03-16T13:47:52;15.20;99.80
2435;DHT22;1228;51.022;6.764;2023-03-16T13:50:18;15.40;98.50
2435;DHT22;1228;51.022;6.764;2023-03-16T13:53:15;15.30;97.20
2435;DHT22;1228;51.022;6.764;2023-03-16T13:55:44;15.30;98.10
2435;DHT22;1228;51.022;6.764;2023-03-16T13:58:19;15.30;98.10
2435;DHT22;1228;51.022;6.764;2023-03-16T14:00:45;15.40;97.80
2435;DHT22;1228;51.022;6.764;2023-03-16T14:03:17;15.50;97.60
2435;DHT22;1228;51.022;6.764;2023-03-16T14:05:43;15.40;97.30
2435;DHT22;1228;51.022;6.764;2023-03-16T14:08:21;15.30;97.60
2435;DHT22;1228;51.022;6.764;2023-03-16T14:10:49;15.20;97.90
2435;DHT22;1228;51.022;6.764;2023-03-16T14:15:54;14.90;96.70
2435;DHT22;1228;51.022;6.764;2023-03-16T14:18:24;14.60;96.60
2435;DHT22;1228;51.022;6.764;2023-03-16T14:20:54;14.40;97.60
2435;DHT22;1228;51.022;6.764;2023-03-16T14:23:25;14.40;97.80
2435;DHT22;1228;51.022;6.764;2023-03-16T14:25:53;14.60;97.50
2435;DHT22;1228;51.022;6.764;2023-03-16T14:28:26;14.50;97.40
2435;DHT22;1228;51.022;6.764;2023-03-16T14:31:00;14.50;97.30
2435;DHT22;1228;51.022;6.764;2023-03-16T14:33:30;14.60;97.40
2435;DHT22;1228;51.022;6.764;2023-03-16T14:35:58;14.70;97.50
2435;DHT22;1228;51.022;6.764;2023-03-16T14:38:30;14.70;97.10
2435;DHT22;1228;51.022;6.764;2023-03-16T14:41:05;14.70;97.40
2435;DHT22;1228;51.022;6.764;2023-03-16T14:43:34;14.90;97.10
2435;DHT22;1228;51.022;6.764;2023-03-16T14:46:04;15.00;97.60
2435;DHT22;1228;51.022;6.764;2023-03-16T14:48:32;15.00;96.90
2435;DHT22;1228;51.022;6.764;2023-03-16T14:51:00;15.00;96.80
2435;DHT22;1228;51.022;6.764;2023-03-16T14:53:27;15.10;97.20
2435;DHT22;1228;51.022;6.764;2023-03-16T14:55:54;15.10;97.50
2435;DHT22;1228;51.022;6.764;2023-03-16T14:58:20;15.00;96.70
2435;DHT22;1228;51.022;6.764;2023-03-16T15:00:46;14.90;97.00
2435;DHT22;1228;51.022;6.764;2023-03-16T15:03:14;15.00;96.90
2435;DHT22;1228;51.022;6.764;2023-03-16T15:05:43;15.00;97.00
2435;DHT22;1228;51.022;6.764;2023-03-16T15:08:15;15.00;97.40
2435;DHT22;1228;51.022;6.764;2023-03-16T15:10:42;15.10;96.50
2435;DHT22;1228;51.022;6.764;2023-03-16T15:13:17;15.00;95.80
2435;DHT22;1228;51.022;6.764;2023-03-16T15:16:03;14.80;96.50
2435;DHT22;1228;51.022;6.764;2023-03-16T15:18:30;14.70;96.10
2435;DHT22;1228;51.022;6.764;2023-03-16T15:20:56;14.60;96.40
2435;DHT22;1228;51.022;6.764;2023-03-16T15:23:22;14.60;96.50
2435;DHT22;1228;51.022;6.764;2023-03-16T15:25:48;14.50;96.50
2435;DHT22;1228;51.022;6.764;2023-03-16T15:28:17;14.60;97.00
2435;DHT22;1228;51.022;6.764;2023-03-16T15:30:44;14.50;96.80
2435;DHT22;1228;51.022;6.764;2023-03-16T15:33:11;14.50;96.30
2435;DHT22;1228;51.022;6.764;2023-03-16T15:35:38;14.40;96.60
2435;DHT22;1228;51.022;6.764;2023-03-16T15:38:09;14.40;97.00
2435;DHT22;1228;51.022;6.764;2023-03-16T15:40:36;14.30;97.00
2435;DHT22;1228;51.022;6.764;2023-03-16T15:43:08;14.20;97.10
2435;DHT22;1228;51.022;6.764;2023-03-16T15:45:34;14.30;96.80
2435;DHT22;1228;51.022;6.764;2023-03-16T15:47:59;14.30;97.20
2435;DHT22;1228;51.022;6.764;2023-03-16T15:50:25;14.40;97.10
2435;DHT22;1228;51.022;6.764;2023-03-16T15:52:55;14.30;96.90
2435;DHT22;1228;51.022;6.764;2023-03-16T15:55:32;14.30;97.90
2435;DHT22;1228;51.022;6.764;2023-03-16T15:58:00;14.20;97.10
2435;DHT22;1228;51.022;6.764;2023-03-16T16:00:36;14.00;97.50
2435;DHT22;1228;51.022;6.764;2023-03-16T16:03:03;13.90;98.20
2435;DHT22;1228;51.022;6.764;2023-03-16T16:05:31;13.80;98.00
2435;DHT22;1228;51.022;6.764;2023-03-16T16:07:57;13.60;98.40
2435;DHT22;1228;51.022;6.764;2023-03-16T16:10:23;13.50;99.10
2435;DHT22;1228;51.022;6.764;2023-03-16T16:12:50;13.40;99.90
2435;DHT22;1228;51.022;6.764;2023-03-16T16:15:23;13.30;99.70
2435;DHT22;1228;51.022;6.764;2023-03-16T16:17:51;13.10;99.90
2435;DHT22;1228;51.022;6.764;2023-03-16T16:22:43;12.90;99.90
2435;DHT22;1228;51.022;6.764;2023-03-16T16:25:12;12.80;99.90
2435;DHT22;1228;51.022;6.764;2023-03-16T16:27:38;12.80;99.90
2435;DHT22;1228;51.022;6.764;2023-03-16T16:30:26;12.70;99.90
2435;DHT22;1228;51.022;6.764;2023-03-16T16:32:53;12.60;99.90
2435;DHT22;1228;51.022;6.764;2023-03-16T16:35:21;12.60;99.90
2435;DHT22;1228;51.022;6.764;2023-03-16T16:37:48;12.60;99.90
2435;DHT22;1228;51.022;6.764;2023-03-16T16:40:21;12.40;99.90
2435;DHT22;1228;51.022;6.764;2023-03-16T16:42:49;12.40;99.90
2435;DHT22;1228;51.022;6.764;2023-03-16T16:45:18;12.30;99.90
2435;DHT22;1228;51.022;6.764;2023-03-16T16:47:46;12.30;99.90
2435;DHT22;1228;51.022;6.764;2023-03-16T16:50:14;12.20;99.90
2435;DHT22;1228;51.022;6.764;2023-03-16T16:52:40;12.30;99.90
2435;DHT22;1228;51.022;6.764;2023-03-16T16:55:05;12.40;99.90
2435;DHT22;1228;51.022;6.764;2023-03-16T16:57:32;12.40;99.90
2435;DHT22;1228;51.022;6.764;2023-03-16T16:59:58;12.30;99.90
2435;DHT22;1228;51.022;6.764;2023-03-16T17:02:32;12.20;99.90
2435;DHT22;1228;51.022;6.764;2023-03-16T17:05:02;12.10;99.90
2435;DHT22;1228;51.022;6.764;2023-03-16T17:07:28;11.90;99.90
2435;DHT22;1228;51.022;6.764;2023-03-16T17:09:54;11.90;99.90
2435;DHT22;1228;51.022;6.764;2023-03-16T17:12:21;11.70;99.90
2435;DHT22;1228;51.022;6.764;2023-03-16T17:14:48;11.70;99.90
2435;DHT22;1228;51.022;6.764;2023-03-16T17:17:15;11.50;99.90
2435;DHT22;1228;51.022;6.764;2023-03-16T17:19:42;11.50;99.90
2435;DHT22;1228;51.022;6.764;2023-03-16T17:22:25;11.40;99.90
2435;DHT22;1228;51.022;6.764;2023-03-16T17:24:53;11.30;99.90
2435;DHT22;1228;51.022;6.764;2023-03-16T17:27:24;11.20;99.90
2435;DHT22;1228;51.022;6.764;2023-03-16T17:29:50;11.10;99.90